Shongopovi, Arizona
Current Conditions -  °F | °C
As of 4:56 PM on Saturday 20 Dec 2014 (Local Time) from KINW Reporting Station
Clear Clear  
Wind Chill: 31°   Ceiling: Unl
Heat Index: 36°   Visibility: 10mi
Dew Point: 32°   Wind: 6mph
Humidity: 86%   Direction: 300°WNW
Pressure: 30.13"   Gusts: NA
Location:  35.9162°N, 110.658°W
Report Text: KINW 202356Z AUTO 30005KT 10SM CLR 02/00 A3013 RMK AO2 SLP214 I6001 T00220000 10039 21011 55002
Loading
Personal Weather Stations






























Interactive Weather Map New forecast layout! Learn more

10-Day Weather Forecast

Advertisements
Track Severe Weather on mobile